sensor_id;sensor_type;location;lat;lon;timestamp;pressure;altitude;pressure_sealevel;temperature;humidity
48424;BME280;34232;42.502;26.014;2023-04-25T00:00:45;99426.50;;;14.53;77.30
48424;BME280;34232;42.502;26.014;2023-04-25T00:03:10;99421.88;;;14.47;77.80
48424;BME280;34232;42.502;26.014;2023-04-25T00:05:35;99421.69;;;14.49;77.22
48424;BME280;34232;42.502;26.014;2023-04-25T00:08:02;99407.34;;;14.43;77.57
48424;BME280;34232;42.502;26.014;2023-04-25T00:10:27;99402.81;;;14.35;77.53
48424;BME280;34232;42.502;26.014;2023-04-25T00:12:53;99389.75;;;14.26;78.17
48424;BME280;34232;42.502;26.014;2023-04-25T00:15:18;99386.78;;;14.21;79.26
48424;BME280;34232;42.502;26.014;2023-04-25T00:17:43;99380.16;;;14.17;78.97
48424;BME280;34232;42.502;26.014;2023-04-25T00:20:10;99369.88;;;14.14;79.27
48424;BME280;34232;42.502;26.014;2023-04-25T00:22:37;99357.19;;;14.09;79.10
48424;BME280;34232;42.502;26.014;2023-04-25T00:25:04;99356.66;;;14.06;79.71
48424;BME280;34232;42.502;26.014;2023-04-25T00:27:29;99357.00;;;14.02;79.46
48424;BME280;34232;42.502;26.014;2023-04-25T00:29:54;99356.84;;;13.96;79.41
48424;BME280;34232;42.502;26.014;2023-04-25T00:32:20;99351.06;;;13.92;79.63
48424;BME280;34232;42.502;26.014;2023-04-25T00:34:45;99352.53;;;13.87;79.64
48424;BME280;34232;42.502;26.014;2023-04-25T00:37:10;99347.88;;;13.81;80.21
48424;BME280;34232;42.502;26.014;2023-04-25T00:39:36;99348.25;;;13.78;80.64
48424;BME280;34232;42.502;26.014;2023-04-25T00:42:02;99342.56;;;13.64;80.64
48424;BME280;34232;42.502;26.014;2023-04-25T00:44:27;99343.38;;;13.49;81.53
48424;BME280;34232;42.502;26.014;2023-04-25T00:46:54;99347.69;;;13.42;82.09
48424;BME280;34232;42.502;26.014;2023-04-25T00:49:20;99353.59;;;13.36;82.38
48424;BME280;34232;42.502;26.014;2023-04-25T00:51:45;99354.25;;;13.29;81.98
48424;BME280;34232;42.502;26.014;2023-04-25T00:54:11;99351.13;;;13.34;81.70
48424;BME280;34232;42.502;26.014;2023-04-25T00:56:37;99352.13;;;13.41;81.67
48424;BME280;34232;42.502;26.014;2023-04-25T00:59:02;99345.97;;;13.32;82.14
48424;BME280;34232;42.502;26.014;2023-04-25T01:01:28;99348.97;;;13.38;81.81
48424;BME280;34232;42.502;26.014;2023-04-25T01:03:53;99343.03;;;13.36;81.62
48424;BME280;34232;42.502;26.014;2023-04-25T01:06:18;99338.44;;;13.46;81.40
48424;BME280;34232;42.502;26.014;2023-04-25T01:08:44;99330.81;;;13.51;80.72
48424;BME280;34232;42.502;26.014;2023-04-25T01:11:09;99332.81;;;13.49;80.09
48424;BME280;34232;42.502;26.014;2023-04-25T01:13:34;99329.53;;;13.55;80.22
48424;BME280;34232;42.502;26.014;2023-04-25T01:16:00;99328.53;;;13.56;79.92
48424;BME280;34232;42.502;26.014;2023-04-25T01:18:26;99329.00;;;13.43;80.63
48424;BME280;34232;42.502;26.014;2023-04-25T01:20:52;99323.53;;;13.37;80.58
48424;BME280;34232;42.502;26.014;2023-04-25T01:23:18;99319.25;;;13.44;80.74
48424;BME280;34232;42.502;26.014;2023-04-25T01:25:46;99322.88;;;13.51;80.49
48424;BME280;34232;42.502;26.014;2023-04-25T01:28:13;99325.22;;;13.54;79.88
48424;BME280;34232;42.502;26.014;2023-04-25T01:30:38;99319.59;;;13.57;79.24
48424;BME280;34232;42.502;26.014;2023-04-25T01:33:04;99316.63;;;13.60;79.44
48424;BME280;34232;42.502;26.014;2023-04-25T01:35:30;99311.19;;;13.61;79.23
48424;BME280;34232;42.502;26.014;2023-04-25T01:37:56;99310.69;;;13.58;78.48
48424;BME280;34232;42.502;26.014;2023-04-25T01:40:21;99302.25;;;13.54;79.38
48424;BME280;34232;42.502;26.014;2023-04-25T01:42:47;99308.00;;;13.50;79.93
48424;BME280;34232;42.502;26.014;2023-04-25T01:45:13;99307.03;;;13.43;79.29
48424;BME280;34232;42.502;26.014;2023-04-25T01:47:38;99299.75;;;13.37;78.94
48424;BME280;34232;42.502;26.014;2023-04-25T01:50:08;99292.13;;;13.34;79.09
48424;BME280;34232;42.502;26.014;2023-04-25T01:52:34;99286.84;;;13.34;79.10
48424;BME280;34232;42.502;26.014;2023-04-25T01:55:00;99281.41;;;13.27;79.77
48424;BME280;34232;42.502;26.014;2023-04-25T01:57:26;99273.28;;;13.20;79.34
48424;BME280;34232;42.502;26.014;2023-04-25T01:59:52;99276.56;;;13.14;79.81
48424;BME280;34232;42.502;26.014;2023-04-25T02:02:22;99260.50;;;13.08;78.75
48424;BME280;34232;42.502;26.014;2023-04-25T02:04:47;99256.69;;;13.02;78.93
48424;BME280;34232;42.502;26.014;2023-04-25T02:07:13;99254.97;;;12.85;80.18
48424;BME280;34232;42.502;26.014;2023-04-25T02:09:38;99254.97;;;12.85;80.34
48424;BME280;34232;42.502;26.014;2023-04-25T02:12:03;99254.66;;;12.88;79.97
48424;BME280;34232;42.502;26.014;2023-04-25T02:14:29;99252.69;;;12.90;79.22
48424;BME280;34232;42.502;26.014;2023-04-25T02:16:54;99265.50;;;12.69;80.16
48424;BME280;34232;42.502;26.014;2023-04-25T02:19:19;99270.44;;;12.64;81.08
48424;BME280;34232;42.502;26.014;2023-04-25T02:21:45;99266.53;;;12.76;79.96
48424;BME280;34232;42.502;26.014;2023-04-25T02:24:10;99256.28;;;12.73;79.74
48424;BME280;34232;42.502;26.014;2023-04-25T02:26:35;99264.19;;;12.65;80.41
48424;BME280;34232;42.502;26.014;2023-04-25T02:29:01;99268.41;;;12.57;81.71
48424;BME280;34232;42.502;26.014;2023-04-25T02:31:27;99274.41;;;12.68;81.61
48424;BME280;34232;42.502;26.014;2023-04-25T02:33:52;99273.47;;;12.77;80.57
48424;BME280;34232;42.502;26.014;2023-04-25T02:36:17;99282.38;;;12.76;80.38
48424;BME280;34232;42.502;26.014;2023-04-25T02:38:42;99287.13;;;12.72;81.34
48424;BME280;34232;42.502;26.014;2023-04-25T02:41:08;99286.34;;;12.80;80.43
48424;BME280;34232;42.502;26.014;2023-04-25T02:43:33;99291.59;;;12.72;80.28
48424;BME280;34232;42.502;26.014;2023-04-25T02:45:58;99289.09;;;12.70;80.76
48424;BME280;34232;42.502;26.014;2023-04-25T02:48:23;99287.66;;;12.76;80.48
48424;BME280;34232;42.502;26.014;2023-04-25T02:50:49;99290.13;;;12.77;80.66
48424;BME280;34232;42.502;26.014;2023-04-25T02:53:14;99290.97;;;12.78;81.08
48424;BME280;34232;42.502;26.014;2023-04-25T02:55:40;99285.69;;;12.78;79.75
48424;BME280;34232;42.502;26.014;2023-04-25T02:58:05;99279.72;;;12.76;80.02
48424;BME280;34232;42.502;26.014;2023-04-25T03:00:30;99279.88;;;12.74;80.40
48424;BME280;34232;42.502;26.014;2023-04-25T03:02:56;99284.34;;;12.74;81.10
48424;BME280;34232;42.502;26.014;2023-04-25T03:05:24;99275.44;;;12.75;80.75
48424;BME280;34232;42.502;26.014;2023-04-25T03:07:49;99276.06;;;12.69;80.59
48424;BME280;34232;42.502;26.014;2023-04-25T03:10:15;99274.69;;;12.56;80.81
48424;BME280;34232;42.502;26.014;2023-04-25T03:12:40;99271.03;;;12.49;81.29
48424;BME280;34232;42.502;26.014;2023-04-25T03:17:40;99280.03;;;12.65;81.59
48424;BME280;34232;42.502;26.014;2023-04-25T03:20:05;99288.28;;;12.70;81.68
48424;BME280;34232;42.502;26.014;2023-04-25T03:22:33;99287.97;;;12.73;81.41
48424;BME280;34232;42.502;26.014;2023-04-25T03:24:58;99296.88;;;12.72;80.58
48424;BME280;34232;42.502;26.014;2023-04-25T03:27:23;99301.84;;;12.75;79.24
48424;BME280;34232;42.502;26.014;2023-04-25T03:29:48;99297.38;;;12.75;78.77
48424;BME280;34232;42.502;26.014;2023-04-25T03:32:14;99306.44;;;12.73;79.00
48424;BME280;34232;42.502;26.014;2023-04-25T03:34:39;99316.03;;;12.74;78.60
48424;BME280;34232;42.502;26.014;2023-04-25T03:37:05;99310.75;;;12.74;78.53
48424;BME280;34232;42.502;26.014;2023-04-25T03:39:30;99316.03;;;12.74;78.57
48424;BME280;34232;42.502;26.014;2023-04-25T03:41:55;99313.84;;;12.69;79.04
48424;BME280;34232;42.502;26.014;2023-04-25T03:44:20;99315.63;;;12.60;80.58
48424;BME280;34232;42.502;26.014;2023-04-25T03:46:46;99313.69;;;12.63;80.90
48424;BME280;34232;42.502;26.014;2023-04-25T03:49:11;99305.06;;;12.60;80.95
48424;BME280;34232;42.502;26.014;2023-04-25T03:51:36;99312.00;;;12.61;81.02
48424;BME280;34232;42.502;26.014;2023-04-25T03:54:02;99305.91;;;12.61;81.46
48424;BME280;34232;42.502;26.014;2023-04-25T03:56:27;99298.13;;;12.59;81.36
48424;BME280;34232;42.502;26.014;2023-04-25T03:58:52;99308.19;;;12.56;82.24
48424;BME280;34232;42.502;26.014;2023-04-25T04:01:18;99302.34;;;12.44;83.00
48424;BME280;34232;42.502;26.014;2023-04-25T04:03:43;99303.72;;;12.56;83.38
48424;BME280;34232;42.502;26.014;2023-04-25T04:06:08;99309.22;;;12.63;83.22
48424;BME280;34232;42.502;26.014;2023-04-25T04:08:34;99306.91;;;12.68;82.95
48424;BME280;34232;42.502;26.014;2023-04-25T04:10:59;99303.44;;;12.68;82.92
48424;BME280;34232;42.502;26.014;2023-04-25T04:13:25;99291.91;;;12.69;82.64
48424;BME280;34232;42.502;26.014;2023-04-25T04:15:51;99291.75;;;12.70;82.04
48424;BME280;34232;42.502;26.014;2023-04-25T04:18:16;99282.00;;;12.71;82.67
48424;BME280;34232;42.502;26.014;2023-04-25T04:20:41;99277.91;;;12.76;82.94
48424;BME280;34232;42.502;26.014;2023-04-25T04:23:06;99280.91;;;12.81;82.15
48424;BME280;34232;42.502;26.014;2023-04-25T04:25:32;99281.41;;;12.85;81.70
48424;BME280;34232;42.502;26.014;2023-04-25T04:27:57;99277.09;;;12.84;81.22
48424;BME280;34232;42.502;26.014;2023-04-25T04:30:24;99277.78;;;12.86;81.59
48424;BME280;34232;42.502;26.014;2023-04-25T04:32:50;99280.44;;;12.94;81.54
48424;BME280;34232;42.502;26.014;2023-04-25T04:35:16;99284.25;;;13.00;80.72
48424;BME280;34232;42.502;26.014;2023-04-25T04:37:41;99289.31;;;12.85;80.28
48424;BME280;34232;42.502;26.014;2023-04-25T04:40:06;99294.34;;;12.96;80.56
48424;BME280;34232;42.502;26.014;2023-04-25T04:42:32;99289.22;;;13.03;79.91
48424;BME280;34232;42.502;26.014;2023-04-25T04:45:00;99295.69;;;13.08;80.18
48424;BME280;34232;42.502;26.014;2023-04-25T04:47:26;99296.34;;;13.10;80.42
48424;BME280;34232;42.502;26.014;2023-04-25T04:49:56;99301.94;;;13.07;80.65
48424;BME280;34232;42.502;26.014;2023-04-25T04:52:21;99302.31;;;13.12;79.93
48424;BME280;34232;42.502;26.014;2023-04-25T04:54:46;99293.03;;;13.08;79.37
48424;BME280;34232;42.502;26.014;2023-04-25T04:57:12;99286.41;;;13.04;80.99
48424;BME280;34232;42.502;26.014;2023-04-25T04:59:37;99287.09;;;13.06;81.32
48424;BME280;34232;42.502;26.014;2023-04-25T05:02:02;99277.84;;;13.10;82.01
48424;BME280;34232;42.502;26.014;2023-04-25T05:04:28;99275.75;;;13.22;82.47
48424;BME280;34232;42.502;26.014;2023-04-25T05:06:53;99273.31;;;13.28;81.63
48424;BME280;34232;42.502;26.014;2023-04-25T05:09:18;99264.03;;;13.32;81.97
48424;BME280;34232;42.502;26.014;2023-04-25T05:11:44;99263.72;;;13.36;82.85
48424;BME280;34232;42.502;26.014;2023-04-25T05:14:09;99264.22;;;13.39;82.97
48424;BME280;34232;42.502;26.014;2023-04-25T05:16:34;99270.34;;;13.40;83.01
48424;BME280;34232;42.502;26.014;2023-04-25T05:19:00;99273.97;;;13.39;83.12
48424;BME280;34232;42.502;26.014;2023-04-25T05:21:25;99269.69;;;13.46;83.28
48424;BME280;34232;42.502;26.014;2023-04-25T05:23:51;99257.78;;;13.42;82.05
48424;BME280;34232;42.502;26.014;2023-04-25T05:26:16;99254.66;;;13.46;82.48
48424;BME280;34232;42.502;26.014;2023-04-25T05:28:41;99249.38;;;13.46;83.70
48424;BME280;34232;42.502;26.014;2023-04-25T05:31:07;99247.53;;;13.55;84.46
48424;BME280;34232;42.502;26.014;2023-04-25T05:33:32;99249.69;;;13.59;82.96
48424;BME280;34232;42.502;26.014;2023-04-25T05:35:57;99250.84;;;13.57;82.78
48424;BME280;34232;42.502;26.014;2023-04-25T05:38:23;99253.66;;;13.55;82.65
48424;BME280;34232;42.502;26.014;2023-04-25T05:40:48;99254.16;;;13.59;83.32
48424;BME280;34232;42.502;26.014;2023-04-25T05:43:13;99252.81;;;13.71;85.05
48424;BME280;34232;42.502;26.014;2023-04-25T05:45:38;99260.09;;;13.77;83.03
48424;BME280;34232;42.502;26.014;2023-04-25T05:48:04;99249.84;;;13.82;81.22
48424;BME280;34232;42.502;26.014;2023-04-25T05:50:29;99251.16;;;13.86;81.75
48424;BME280;34232;42.502;26.014;2023-04-25T05:52:54;99259.75;;;13.88;82.65
48424;BME280;34232;42.502;26.014;2023-04-25T05:55:19;99261.09;;;13.92;80.00
48424;BME280;34232;42.502;26.014;2023-04-25T05:57:45;99259.72;;;13.96;80.04
48424;BME280;34232;42.502;26.014;2023-04-25T06:00:11;99256.44;;;14.02;79.94
48424;BME280;34232;42.502;26.014;2023-04-25T06:02:36;99258.09;;;14.04;79.27
48424;BME280;34232;42.502;26.014;2023-04-25T06:05:02;99255.44;;;14.04;79.44
48424;BME280;34232;42.502;26.014;2023-04-25T06:07:30;99256.28;;;14.04;79.42
48424;BME280;34232;42.502;26.014;2023-04-25T06:09:55;99264.00;;;14.14;79.43
48424;BME280;34232;42.502;26.014;2023-04-25T06:12:21;99269.81;;;14.17;79.23
48424;BME280;34232;42.502;26.014;2023-04-25T06:14:46;99264.69;;;14.08;79.29
48424;BME280;34232;42.502;26.014;2023-04-25T06:17:11;99265.34;;;14.18;78.21
48424;BME280;34232;42.502;26.014;2023-04-25T06:19:37;99267.97;;;14.26;78.26
48424;BME280;34232;42.502;26.014;2023-04-25T06:22:02;99270.25;;;14.37;79.25
48424;BME280;34232;42.502;26.014;2023-04-25T06:24:27;99260.69;;;14.44;79.48
48424;BME280;34232;42.502;26.014;2023-04-25T06:26:53;99261.31;;;14.54;78.30
48424;BME280;34232;42.502;26.014;2023-04-25T06:29:18;99258.16;;;14.51;77.26
48424;BME280;34232;42.502;26.014;2023-04-25T06:31:44;99262.94;;;14.55;76.45
48424;BME280;34232;42.502;26.014;2023-04-25T06:34:09;99257.47;;;14.57;76.84
48424;BME280;34232;42.502;26.014;2023-04-25T06:36:34;99262.25;;;14.61;76.79
48424;BME280;34232;42.502;26.014;2023-04-25T06:39:00;99263.91;;;14.62;75.99
48424;BME280;34232;42.502;26.014;2023-04-25T06:41:25;99273.22;;;14.58;76.58
48424;BME280;34232;42.502;26.014;2023-04-25T06:43:50;99280.84;;;14.53;78.29
48424;BME280;34232;42.502;26.014;2023-04-25T06:46:16;99277.69;;;14.58;78.02
48424;BME280;34232;42.502;26.014;2023-04-25T06:48:41;99272.34;;;14.66;77.89
48424;BME280;34232;42.502;26.014;2023-04-25T06:51:06;99271.50;;;14.74;77.03
48424;BME280;34232;42.502;26.014;2023-04-25T06:53:31;99278.44;;;14.75;77.16
48424;BME280;34232;42.502;26.014;2023-04-25T06:55:57;99276.91;;;14.80;77.18
48424;BME280;34232;42.502;26.014;2023-04-25T06:58:22;99276.09;;;14.80;75.76
48424;BME280;34232;42.502;26.014;2023-04-25T07:00:47;99274.91;;;14.82;75.49
48424;BME280;34232;42.502;26.014;2023-04-25T07:03:13;99273.75;;;14.85;75.55
48424;BME280;34232;42.502;26.014;2023-04-25T07:05:38;99276.22;;;14.86;74.96
48424;BME280;34232;42.502;26.014;2023-04-25T07:08:03;99273.75;;;14.85;74.99
48424;BME280;34232;42.502;26.014;2023-04-25T07:10:29;99273.53;;;14.94;76.98
48424;BME280;34232;42.502;26.014;2023-04-25T07:12:54;99262.72;;;15.04;76.88
48424;BME280;34232;42.502;26.014;2023-04-25T07:15:19;99266.13;;;15.13;76.40
48424;BME280;34232;42.502;26.014;2023-04-25T07:17:45;99274.88;;;15.21;74.54
48424;BME280;34232;42.502;26.014;2023-04-25T07:20:10;99265.22;;;15.28;75.15
48424;BME280;34232;42.502;26.014;2023-04-25T07:22:35;99268.66;;;15.37;75.60
48424;BME280;34232;42.502;26.014;2023-04-25T07:25:01;99260.63;;;15.45;75.25
48424;BME280;34232;42.502;26.014;2023-04-25T07:27:26;99262.59;;;15.51;75.41
48424;BME280;34232;42.502;26.014;2023-04-25T07:29:51;99258.75;;;15.54;75.42
48424;BME280;34232;42.502;26.014;2023-04-25T07:32:16;99265.00;;;15.61;74.08
48424;BME280;34232;42.502;26.014;2023-04-25T07:34:42;99262.78;;;15.72;72.82
48424;BME280;34232;42.502;26.014;2023-04-25T07:37:07;99247.88;;;15.71;73.23
48424;BME280;34232;42.502;26.014;2023-04-25T07:39:32;99251.91;;;15.82;73.62
48424;BME280;34232;42.502;26.014;2023-04-25T07:41:58;99249.19;;;15.90;72.79
48424;BME280;34232;42.502;26.014;2023-04-25T07:44:27;99247.63;;;15.96;71.75
48424;BME280;34232;42.502;26.014;2023-04-25T07:46:52;99244.09;;;16.03;70.77
48424;BME280;34232;42.502;26.014;2023-04-25T07:49:17;99248.28;;;16.13;70.72
48424;BME280;34232;42.502;26.014;2023-04-25T07:51:42;99246.75;;;16.18;70.29
48424;BME280;34232;42.502;26.014;2023-04-25T07:54:13;99241.72;;;16.23;69.84
48424;BME280;34232;42.502;26.014;2023-04-25T07:56:39;99247.41;;;16.35;69.53
48424;BME280;34232;42.502;26.014;2023-04-25T07:59:04;99238.44;;;16.36;69.46
48424;BME280;34232;42.502;26.014;2023-04-25T08:01:30;99241.06;;;16.51;69.30
48424;BME280;34232;42.502;26.014;2023-04-25T08:03:55;99239.50;;;16.56;67.91
48424;BME280;34232;42.502;26.014;2023-04-25T08:06:20;99237.47;;;16.58;65.26
48424;BME280;34232;42.502;26.014;2023-04-25T08:08:46;99232.00;;;16.74;64.14
48424;BME280;34232;42.502;26.014;2023-04-25T08:11:11;99235.84;;;16.87;65.22
48424;BME280;34232;42.502;26.014;2023-04-25T08:13:36;99234.19;;;17.07;64.28
48424;BME280;34232;42.502;26.014;2023-04-25T08:16:01;99236.25;;;17.26;64.94
48424;BME280;34232;42.502;26.014;2023-04-25T08:18:27;99224.53;;;17.42;63.90
48424;BME280;34232;42.502;26.014;2023-04-25T08:20:52;99216.47;;;17.57;61.28
48424;BME280;34232;42.502;26.014;2023-04-25T08:23:17;99212.09;;;17.70;60.52
48424;BME280;34232;42.502;26.014;2023-04-25T08:25:43;99213.06;;;17.84;61.59
48424;BME280;34232;42.502;26.014;2023-04-25T08:28:08;99202.13;;;18.00;60.45
48424;BME280;34232;42.502;26.014;2023-04-25T08:30:34;99207.53;;;18.13;57.57
48424;BME280;34232;42.502;26.014;2023-04-25T08:33:00;99203.97;;;18.06;59.47
48424;BME280;34232;42.502;26.014;2023-04-25T08:35:25;99201.81;;;18.23;59.84
48424;BME280;34232;42.502;26.014;2023-04-25T08:37:50;99201.06;;;18.36;56.08
48424;BME280;34232;42.502;26.014;2023-04-25T08:40:16;99202.19;;;18.54;57.19
48424;BME280;34232;42.502;26.014;2023-04-25T08:42:41;99197.13;;;18.60;55.09
48424;BME280;34232;42.502;26.014;2023-04-25T08:45:07;99211.09;;;18.62;52.54
48424;BME280;34232;42.502;26.014;2023-04-25T08:47:33;99211.28;;;18.60;51.90
48424;BME280;34232;42.502;26.014;2023-04-25T08:49:59;99205.34;;;18.65;53.04
48424;BME280;34232;42.502;26.014;2023-04-25T08:52:25;99213.16;;;18.73;52.87
48424;BME280;34232;42.502;26.014;2023-04-25T08:54:52;99211.16;;;18.81;53.78
48424;BME280;34232;42.502;26.014;2023-04-25T08:57:17;99212.38;;;18.85;52.74
48424;BME280;34232;42.502;26.014;2023-04-25T08:59:43;99211.63;;;18.98;53.39
48424;BME280;34232;42.502;26.014;2023-04-25T09:02:11;99217.81;;;19.12;53.33
48424;BME280;34232;42.502;26.014;2023-04-25T09:04:39;99204.28;;;19.20;51.95
48424;BME280;34232;42.502;26.014;2023-04-25T09:07:05;99202.63;;;19.19;52.40
48424;BME280;34232;42.502;26.014;2023-04-25T09:09:30;99205.75;;;19.29;51.91
48424;BME280;34232;42.502;26.014;2023-04-25T09:11:55;99202.66;;;19.39;52.89
48424;BME280;34232;42.502;26.014;2023-04-25T09:14:22;99200.59;;;19.28;51.82
48424;BME280;34232;42.502;26.014;2023-04-25T09:21:50;99191.16;;;19.38;52.37
48424;BME280;34232;42.502;26.014;2023-04-25T09:24:16;99189.13;;;19.67;51.85
48424;BME280;34232;42.502;26.014;2023-04-25T09:26:44;99186.25;;;19.88;50.39
48424;BME280;34232;42.502;26.014;2023-04-25T09:29:09;99183.34;;;20.09;50.60
48424;BME280;34232;42.502;26.014;2023-04-25T09:31:35;99178.38;;;20.19;51.69
48424;BME280;34232;42.502;26.014;2023-04-25T09:34:01;99177.31;;;20.40;51.37
48424;BME280;34232;42.502;26.014;2023-04-25T09:36:27;99175.81;;;20.57;51.63
48424;BME280;34232;42.502;26.014;2023-04-25T09:38:52;99178.75;;;20.43;49.13
48424;BME280;34232;42.502;26.014;2023-04-25T09:41:22;99180.34;;;20.57;49.18
48424;BME280;34232;42.502;26.014;2023-04-25T09:43:48;99170.91;;;20.92;49.78
48424;BME280;34232;42.502;26.014;2023-04-25T09:46:14;99165.38;;;21.19;48.02
48424;BME280;34232;42.502;26.014;2023-04-25T09:48:39;99166.25;;;21.44;47.91
48424;BME280;34232;42.502;26.014;2023-04-25T09:51:05;99161.09;;;21.68;46.04
48424;BME280;34232;42.502;26.014;2023-04-25T09:53:31;99159.47;;;21.91;46.29
48424;BME280;34232;42.502;26.014;2023-04-25T09:55:57;99155.50;;;21.94;46.10
48424;BME280;34232;42.502;26.014;2023-04-25T09:58:24;99150.66;;;21.84;46.29
48424;BME280;34232;42.502;26.014;2023-04-25T10:00:51;99144.22;;;22.10;45.35
48424;BME280;34232;42.502;26.014;2023-04-25T10:03:19;99143.56;;;22.33;44.96
48424;BME280;34232;42.502;26.014;2023-04-25T10:05:45;99132.88;;;22.45;46.45
48424;BME280;34232;42.502;26.014;2023-04-25T10:08:11;99129.88;;;21.98;44.66
48424;BME280;34232;42.502;26.014;2023-04-25T10:10:37;99127.69;;;22.13;46.91
48424;BME280;34232;42.502;26.014;2023-04-25T10:13:05;99122.63;;;22.23;46.33
48424;BME280;34232;42.502;26.014;2023-04-25T10:15:32;99113.09;;;22.09;46.04
48424;BME280;34232;42.502;26.014;2023-04-25T10:17:57;99099.38;;;22.17;45.69
48424;BME280;34232;42.502;26.014;2023-04-25T10:20:23;99104.00;;;22.28;45.35
48424;BME280;34232;42.502;26.014;2023-04-25T10:22:48;99100.00;;;22.49;44.24
48424;BME280;34232;42.502;26.014;2023-04-25T10:25:19;99091.97;;;22.79;44.50
48424;BME280;34232;42.502;26.014;2023-04-25T10:27:44;99085.19;;;22.77;43.36
48424;BME280;34232;42.502;26.014;2023-04-25T10:30:11;99082.19;;;22.55;44.73
48424;BME280;34232;42.502;26.014;2023-04-25T10:32:41;99084.34;;;22.76;46.23
48424;BME280;34232;42.502;26.014;2023-04-25T10:35:13;99074.53;;;23.00;44.45
48424;BME280;34232;42.502;26.014;2023-04-25T10:37:42;99076.31;;;23.18;43.49
48424;BME280;34232;42.502;26.014;2023-04-25T10:40:21;99076.44;;;23.46;42.81
48424;BME280;34232;42.502;26.014;2023-04-25T10:42:47;99073.41;;;23.19;42.60
48424;BME280;34232;42.502;26.014;2023-04-25T10:45:12;99077.59;;;23.38;43.23
48424;BME280;34232;42.502;26.014;2023-04-25T10:47:43;99076.81;;;23.61;43.32
48424;BME280;34232;42.502;26.014;2023-04-25T10:50:09;99074.13;;;23.85;41.68
48424;BME280;34232;42.502;26.014;2023-04-25T10:52:36;99086.69;;;24.07;42.18
48424;BME280;34232;42.502;26.014;2023-04-25T10:55:03;99084.22;;;24.06;41.97
48424;BME280;34232;42.502;26.014;2023-04-25T10:57:42;99082.41;;;23.95;42.30
48424;BME280;34232;42.502;26.014;2023-04-25T11:00:15;99096.63;;;24.07;42.27
48424;BME280;34232;42.502;26.014;2023-04-25T11:02:59;99085.44;;;23.87;41.90
48424;BME280;34232;42.502;26.014;2023-04-25T11:05:32;99089.66;;;23.59;43.15
48424;BME280;34232;42.502;26.014;2023-04-25T11:07:57;99081.22;;;23.91;44.81
48424;BME280;34232;42.502;26.014;2023-04-25T11:10:26;99075.22;;;24.12;42.69
48424;BME280;34232;42.502;26.014;2023-04-25T11:12:52;99087.94;;;24.28;40.78
48424;BME280;34232;42.502;26.014;2023-04-25T11:15:17;99086.03;;;24.00;41.95
48424;BME280;34232;42.502;26.014;2023-04-25T11:17:43;99080.91;;;23.64;43.56
48424;BME280;34232;42.502;26.014;2023-04-25T11:20:11;99077.75;;;23.79;42.94
48424;BME280;34232;42.502;26.014;2023-04-25T11:22:40;99073.06;;;23.86;45.79
48424;BME280;34232;42.502;26.014;2023-04-25T11:25:08;99065.94;;;23.56;44.52
48424;BME280;34232;42.502;26.014;2023-04-25T11:27:37;99071.34;;;23.68;44.38
48424;BME280;34232;42.502;26.014;2023-04-25T11:30:12;99058.47;;;23.82;43.26
48424;BME280;34232;42.502;26.014;2023-04-25T11:32:39;99061.81;;;23.89;42.70
48424;BME280;34232;42.502;26.014;2023-04-25T11:35:04;99054.00;;;23.87;41.81
48424;BME280;34232;42.502;26.014;2023-04-25T11:37:31;99050.97;;;23.72;43.02
48424;BME280;34232;42.502;26.014;2023-04-25T11:39:56;99055.31;;;23.61;43.82
48424;BME280;34232;42.502;26.014;2023-04-25T11:42:21;99049.78;;;23.10;44.60
48424;BME280;34232;42.502;26.014;2023-04-25T11:44:46;99040.19;;;22.90;46.67
48424;BME280;34232;42.502;26.014;2023-04-25T11:47:12;99037.66;;;22.65;47.91
48424;BME280;34232;42.502;26.014;2023-04-25T11:49:37;99054.41;;;22.49;49.11
48424;BME280;34232;42.502;26.014;2023-04-25T11:52:02;99048.06;;;22.14;49.03
48424;BME280;34232;42.502;26.014;2023-04-25T11:54:28;99047.41;;;21.82;50.14
48424;BME280;34232;42.502;26.014;2023-04-25T11:56:53;99042.56;;;21.54;51.18
48424;BME280;34232;42.502;26.014;2023-04-25T11:59:22;99049.22;;;21.45;51.01
48424;BME280;34232;42.502;26.014;2023-04-25T12:01:48;99039.03;;;21.35;50.88
48424;BME280;34232;42.502;26.014;2023-04-25T12:04:21;99035.66;;;21.21;49.98
48424;BME280;34232;42.502;26.014;2023-04-25T12:06:47;99037.63;;;21.08;49.90
48424;BME280;34232;42.502;26.014;2023-04-25T12:09:31;99027.38;;;20.98;49.44
48424;BME280;34232;42.502;26.014;2023-04-25T12:11:57;99034.91;;;20.83;50.46
48424;BME280;34232;42.502;26.014;2023-04-25T12:14:29;99024.53;;;20.68;53.08
48424;BME280;34232;42.502;26.014;2023-04-25T12:16:56;99021.75;;;20.56;54.46
48424;BME280;34232;42.502;26.014;2023-04-25T12:19:25;99031.03;;;20.47;56.45
48424;BME280;34232;42.502;26.014;2023-04-25T12:21:50;99028.84;;;20.38;56.14
48424;BME280;34232;42.502;26.014;2023-04-25T12:24:17;99033.59;;;20.29;55.58
48424;BME280;34232;42.502;26.014;2023-04-25T12:26:46;99031.78;;;20.16;57.26
48424;BME280;34232;42.502;26.014;2023-04-25T12:29:24;99021.38;;;20.08;58.68
48424;BME280;34232;42.502;26.014;2023-04-25T12:31:50;99007.59;;;20.05;59.25
48424;BME280;34232;42.502;26.014;2023-04-25T12:34:16;99001.88;;;20.01;59.15
48424;BME280;34232;42.502;26.014;2023-04-25T12:36:43;99001.50;;;19.91;60.48
48424;BME280;34232;42.502;26.014;2023-04-25T12:39:08;99004.13;;;19.98;61.31
48424;BME280;34232;42.502;26.014;2023-04-25T12:41:33;98992.41;;;20.05;62.15
48424;BME280;34232;42.502;26.014;2023-04-25T12:43:59;98984.31;;;20.18;64.20
48424;BME280;34232;42.502;26.014;2023-04-25T12:46:24;98983.13;;;20.08;63.46
48424;BME280;34232;42.502;26.014;2023-04-25T12:48:50;98982.41;;;19.87;60.72
48424;BME280;34232;42.502;26.014;2023-04-25T12:51:15;98977.41;;;19.53;60.10